sensor_id;sensor_type;location;lat;lon;timestamp;pressure;altitude;pressure_sealevel;temperature
64947;BMP280;51469;52.150;4.682;2023-12-14T00:01:37;101204.94;;;13.17
64947;BMP280;51469;52.150;4.682;2023-12-14T00:04:04;101210.69;;;13.59
64947;BMP280;51469;52.150;4.682;2023-12-14T00:06:30;101205.84;;;13.38
64947;BMP280;51469;52.150;4.682;2023-12-14T00:08:55;101219.78;;;13.05
64947;BMP280;51469;52.150;4.682;2023-12-14T00:11:21;101222.63;;;12.62
64947;BMP280;51469;52.150;4.682;2023-12-14T00:13:46;101235.63;;;12.65
64947;BMP280;51469;52.150;4.682;2023-12-14T00:16:11;101239.13;;;12.62
64947;BMP280;51469;52.150;4.682;2023-12-14T00:18:37;101231.34;;;12.71
64947;BMP280;51469;52.150;4.682;2023-12-14T00:21:03;101238.66;;;13.00
64947;BMP280;51469;52.150;4.682;2023-12-14T00:23:28;101241.94;;;12.72
64947;BMP280;51469;52.150;4.682;2023-12-14T00:25:54;101251.97;;;12.91
64947;BMP280;51469;52.150;4.682;2023-12-14T00:28:19;101256.34;;;12.99
64947;BMP280;51469;52.150;4.682;2023-12-14T00:30:45;101265.69;;;13.38
64947;BMP280;51469;52.150;4.682;2023-12-14T00:33:10;101263.38;;;13.47
64947;BMP280;51469;52.150;4.682;2023-12-14T00:35:35;101267.22;;;13.32
64947;BMP280;51469;52.150;4.682;2023-12-14T00:38:01;101287.88;;;13.05
64947;BMP280;51469;52.150;4.682;2023-12-14T00:40:26;101284.19;;;12.87
64947;BMP280;51469;52.150;4.682;2023-12-14T00:42:52;101284.22;;;12.90
64947;BMP280;51469;52.150;4.682;2023-12-14T00:45:17;101281.44;;;12.87
64947;BMP280;51469;52.150;4.682;2023-12-14T00:47:42;101297.28;;;13.00
64947;BMP280;51469;52.150;4.682;2023-12-14T00:50:08;101297.66;;;12.99
64947;BMP280;51469;52.150;4.682;2023-12-14T00:52:34;101306.13;;;13.20
64947;BMP280;51469;52.150;4.682;2023-12-14T00:54:59;101312.03;;;13.22
64947;BMP280;51469;52.150;4.682;2023-12-14T00:57:25;101315.41;;;13.52
64947;BMP280;51469;52.150;4.682;2023-12-14T00:59:50;101320.16;;;13.55
64947;BMP280;51469;52.150;4.682;2023-12-14T01:02:15;101325.75;;;13.69
64947;BMP280;51469;52.150;4.682;2023-12-14T01:04:41;101332.78;;;13.63
64947;BMP280;51469;52.150;4.682;2023-12-14T01:07:07;101334.44;;;13.17
64947;BMP280;51469;52.150;4.682;2023-12-14T01:09:32;101333.81;;;12.94
64947;BMP280;51469;52.150;4.682;2023-12-14T01:11:57;101338.78;;;13.25
64947;BMP280;51469;52.150;4.682;2023-12-14T01:14:23;101335.00;;;13.40
64947;BMP280;51469;52.150;4.682;2023-12-14T01:16:48;101346.34;;;12.88
64947;BMP280;51469;52.150;4.682;2023-12-14T01:19:14;101358.38;;;12.73
64947;BMP280;51469;52.150;4.682;2023-12-14T01:21:39;101354.19;;;12.86
64947;BMP280;51469;52.150;4.682;2023-12-14T01:24:05;101365.72;;;12.95
64947;BMP280;51469;52.150;4.682;2023-12-14T01:26:30;101369.25;;;12.95
64947;BMP280;51469;52.150;4.682;2023-12-14T01:28:55;101368.47;;;12.95
64947;BMP280;51469;52.150;4.682;2023-12-14T01:31:21;101371.63;;;12.97
64947;BMP280;51469;52.150;4.682;2023-12-14T01:33:49;101370.75;;;12.89
64947;BMP280;51469;52.150;4.682;2023-12-14T01:36:21;101375.00;;;13.20
64947;BMP280;51469;52.150;4.682;2023-12-14T01:38:47;101382.41;;;12.76
64947;BMP280;51469;52.150;4.682;2023-12-14T01:41:13;101392.31;;;12.80
64947;BMP280;51469;52.150;4.682;2023-12-14T01:43:38;101393.19;;;13.28
64947;BMP280;51469;52.150;4.682;2023-12-14T01:46:04;101392.31;;;13.20
64947;BMP280;51469;52.150;4.682;2023-12-14T01:48:29;101393.22;;;13.35
64947;BMP280;51469;52.150;4.682;2023-12-14T01:50:54;101414.53;;;12.98
64947;BMP280;51469;52.150;4.682;2023-12-14T01:53:21;101418.19;;;13.09
64947;BMP280;51469;52.150;4.682;2023-12-14T01:55:46;101421.00;;;13.16
64947;BMP280;51469;52.150;4.682;2023-12-14T01:58:12;101423.41;;;13.21
64947;BMP280;51469;52.150;4.682;2023-12-14T02:00:49;101429.06;;;13.35
64947;BMP280;51469;52.150;4.682;2023-12-14T02:03:17;101423.94;;;12.97
64947;BMP280;51469;52.150;4.682;2023-12-14T02:05:43;101435.53;;;13.13
64947;BMP280;51469;52.150;4.682;2023-12-14T02:08:08;101443.72;;;12.14
64947;BMP280;51469;52.150;4.682;2023-12-14T02:10:34;101444.72;;;12.28
64947;BMP280;51469;52.150;4.682;2023-12-14T02:13:02;101457.72;;;12.05
64947;BMP280;51469;52.150;4.682;2023-12-14T02:15:28;101459.06;;;12.41
64947;BMP280;51469;52.150;4.682;2023-12-14T02:17:54;101460.75;;;12.49
64947;BMP280;51469;52.150;4.682;2023-12-14T02:20:19;101462.59;;;13.04
64947;BMP280;51469;52.150;4.682;2023-12-14T02:22:57;101470.16;;;12.48
64947;BMP280;51469;52.150;4.682;2023-12-14T02:25:24;101470.81;;;12.38
64947;BMP280;51469;52.150;4.682;2023-12-14T02:27:50;101477.88;;;12.65
64947;BMP280;51469;52.150;4.682;2023-12-14T02:30:17;101481.69;;;12.57
64947;BMP280;51469;52.150;4.682;2023-12-14T02:32:42;101491.88;;;12.86
64947;BMP280;51469;52.150;4.682;2023-12-14T02:35:08;101485.19;;;13.16
64947;BMP280;51469;52.150;4.682;2023-12-14T02:37:34;101493.34;;;12.47
64947;BMP280;51469;52.150;4.682;2023-12-14T02:40:02;101502.88;;;12.86
64947;BMP280;51469;52.150;4.682;2023-12-14T02:42:28;101498.50;;;12.78
64947;BMP280;51469;52.150;4.682;2023-12-14T02:44:54;101495.50;;;13.23
64947;BMP280;51469;52.150;4.682;2023-12-14T02:47:19;101491.59;;;13.27
64947;BMP280;51469;52.150;4.682;2023-12-14T02:49:45;101507.22;;;12.54
64947;BMP280;51469;52.150;4.682;2023-12-14T02:52:10;101510.06;;;12.35
64947;BMP280;51469;52.150;4.682;2023-12-14T02:54:39;101503.09;;;13.00
64947;BMP280;51469;52.150;4.682;2023-12-14T02:57:05;101497.28;;;12.79
64947;BMP280;51469;52.150;4.682;2023-12-14T02:59:30;101496.75;;;12.96
64947;BMP280;51469;52.150;4.682;2023-12-14T03:01:55;101505.13;;;13.06
64947;BMP280;51469;52.150;4.682;2023-12-14T03:04:21;101505.19;;;13.50
64947;BMP280;51469;52.150;4.682;2023-12-14T03:06:46;101509.25;;;13.63
64947;BMP280;51469;52.150;4.682;2023-12-14T03:09:11;101510.78;;;13.57
64947;BMP280;51469;52.150;4.682;2023-12-14T03:11:37;101506.13;;;13.61
64947;BMP280;51469;52.150;4.682;2023-12-14T03:14:02;101507.63;;;13.55
64947;BMP280;51469;52.150;4.682;2023-12-14T03:16:28;101510.78;;;13.57
64947;BMP280;51469;52.150;4.682;2023-12-14T03:18:53;101522.03;;;13.05
64947;BMP280;51469;52.150;4.682;2023-12-14T03:21:19;101534.50;;;12.92
64947;BMP280;51469;52.150;4.682;2023-12-14T03:23:45;101528.50;;;13.19
64947;BMP280;51469;52.150;4.682;2023-12-14T03:26:11;101523.69;;;13.13
64947;BMP280;51469;52.150;4.682;2023-12-14T03:28:36;101526.00;;;13.44
64947;BMP280;51469;52.150;4.682;2023-12-14T03:31:02;101529.34;;;13.27
64947;BMP280;51469;52.150;4.682;2023-12-14T03:33:27;101530.78;;;13.50
64947;BMP280;51469;52.150;4.682;2023-12-14T03:35:52;101524.97;;;13.59
64947;BMP280;51469;52.150;4.682;2023-12-14T03:38:18;101531.44;;;13.37
64947;BMP280;51469;52.150;4.682;2023-12-14T03:40:43;101525.28;;;13.50
64947;BMP280;51469;52.150;4.682;2023-12-14T03:43:09;101528.28;;;13.35
64947;BMP280;51469;52.150;4.682;2023-12-14T03:45:34;101532.47;;;13.22
64947;BMP280;51469;52.150;4.682;2023-12-14T03:47:59;101538.56;;;13.41
64947;BMP280;51469;52.150;4.682;2023-12-14T03:50:25;101543.78;;;13.50
64947;BMP280;51469;52.150;4.682;2023-12-14T03:52:50;101541.41;;;13.48
64947;BMP280;51469;52.150;4.682;2023-12-14T03:55:15;101553.00;;;13.61
64947;BMP280;51469;52.150;4.682;2023-12-14T03:57:42;101545.28;;;13.44
64947;BMP280;51469;52.150;4.682;2023-12-14T04:00:10;101559.34;;;13.32
64947;BMP280;51469;52.150;4.682;2023-12-14T04:02:35;101562.38;;;13.20
64947;BMP280;51469;52.150;4.682;2023-12-14T04:05:01;101564.75;;;13.25
64947;BMP280;51469;52.150;4.682;2023-12-14T04:07:26;101562.44;;;13.27
64947;BMP280;51469;52.150;4.682;2023-12-14T04:09:52;101569.38;;;13.14
64947;BMP280;51469;52.150;4.682;2023-12-14T04:12:17;101569.28;;;13.40
64947;BMP280;51469;52.150;4.682;2023-12-14T04:14:43;101581.81;;;13.34
64947;BMP280;51469;52.150;4.682;2023-12-14T04:17:10;101583.53;;;12.57
64947;BMP280;51469;52.150;4.682;2023-12-14T04:19:38;101580.75;;;13.12
64947;BMP280;51469;52.150;4.682;2023-12-14T04:22:03;101584.91;;;13.29
64947;BMP280;51469;52.150;4.682;2023-12-14T04:24:29;101597.06;;;12.95
64947;BMP280;51469;52.150;4.682;2023-12-14T04:26:55;101599.81;;;12.95
64947;BMP280;51469;52.150;4.682;2023-12-14T04:29:20;101610.72;;;12.88
64947;BMP280;51469;52.150;4.682;2023-12-14T04:31:46;101611.28;;;13.30
64947;BMP280;51469;52.150;4.682;2023-12-14T04:34:11;101616.13;;;13.40
64947;BMP280;51469;52.150;4.682;2023-12-14T04:36:40;101608.47;;;13.23
64947;BMP280;51469;52.150;4.682;2023-12-14T04:39:06;101624.81;;;12.83
64947;BMP280;51469;52.150;4.682;2023-12-14T04:41:31;101639.91;;;12.92
64947;BMP280;51469;52.150;4.682;2023-12-14T04:43:57;101645.84;;;13.24
64947;BMP280;51469;52.150;4.682;2023-12-14T04:46:22;101651.19;;;13.10
64947;BMP280;51469;52.150;4.682;2023-12-14T04:48:47;101655.78;;;13.32
64947;BMP280;51469;52.150;4.682;2023-12-14T04:51:13;101661.22;;;12.99
64947;BMP280;51469;52.150;4.682;2023-12-14T04:53:38;101673.59;;;12.82
64947;BMP280;51469;52.150;4.682;2023-12-14T04:56:04;101681.28;;;12.96
64947;BMP280;51469;52.150;4.682;2023-12-14T04:58:29;101685.19;;;12.69
64947;BMP280;51469;52.150;4.682;2023-12-14T05:00:55;101685.53;;;12.64
64947;BMP280;51469;52.150;4.682;2023-12-14T05:03:20;101691.03;;;12.90
64947;BMP280;51469;52.150;4.682;2023-12-14T05:05:45;101700.59;;;13.25
64947;BMP280;51469;52.150;4.682;2023-12-14T05:08:11;101702.25;;;13.04
64947;BMP280;51469;52.150;4.682;2023-12-14T05:10:36;101705.34;;;12.09
64947;BMP280;51469;52.150;4.682;2023-12-14T05:13:01;101705.59;;;12.23
64947;BMP280;51469;52.150;4.682;2023-12-14T05:15:26;101708.63;;;12.82
64947;BMP280;51469;52.150;4.682;2023-12-14T05:17:52;101709.63;;;12.74
64947;BMP280;51469;52.150;4.682;2023-12-14T05:20:17;101715.06;;;12.93
64947;BMP280;51469;52.150;4.682;2023-12-14T05:22:42;101715.22;;;12.32
64947;BMP280;51469;52.150;4.682;2023-12-14T05:25:09;101726.81;;;12.64
64947;BMP280;51469;52.150;4.682;2023-12-14T05:27:34;101724.28;;;12.78
64947;BMP280;51469;52.150;4.682;2023-12-14T05:29:59;101733.81;;;12.84
64947;BMP280;51469;52.150;4.682;2023-12-14T05:32:25;101735.19;;;11.69
64947;BMP280;51469;52.150;4.682;2023-12-14T05:34:50;101735.78;;;12.38
64947;BMP280;51469;52.150;4.682;2023-12-14T05:37:15;101737.06;;;12.67
64947;BMP280;51469;52.150;4.682;2023-12-14T05:39:42;101733.63;;;12.51
64947;BMP280;51469;52.150;4.682;2023-12-14T05:42:08;101739.03;;;12.44
64947;BMP280;51469;52.150;4.682;2023-12-14T05:44:33;101748.56;;;12.50
64947;BMP280;51469;52.150;4.682;2023-12-14T05:46:59;101746.72;;;12.35
64947;BMP280;51469;52.150;4.682;2023-12-14T05:49:24;101743.38;;;12.45
64947;BMP280;51469;52.150;4.682;2023-12-14T05:51:50;101747.81;;;12.72
64947;BMP280;51469;52.150;4.682;2023-12-14T05:54:15;101749.66;;;12.68
64947;BMP280;51469;52.150;4.682;2023-12-14T05:56:40;101769.84;;;12.53
64947;BMP280;51469;52.150;4.682;2023-12-14T05:59:06;101763.78;;;12.89
64947;BMP280;51469;52.150;4.682;2023-12-14T06:01:31;101769.09;;;13.01
64947;BMP280;51469;52.150;4.682;2023-12-14T06:03:57;101780.88;;;12.98
64947;BMP280;51469;52.150;4.682;2023-12-14T06:06:22;101779.22;;;12.93
64947;BMP280;51469;52.150;4.682;2023-12-14T06:08:48;101783.88;;;12.89
64947;BMP280;51469;52.150;4.682;2023-12-14T06:11:13;101786.72;;;12.74
64947;BMP280;51469;52.150;4.682;2023-12-14T06:13:39;101783.06;;;12.89
64947;BMP280;51469;52.150;4.682;2023-12-14T06:16:05;101782.28;;;13.11
64947;BMP280;51469;52.150;4.682;2023-12-14T06:18:32;101779.41;;;13.04
64947;BMP280;51469;52.150;4.682;2023-12-14T06:20:57;101784.44;;;12.76
64947;BMP280;51469;52.150;4.682;2023-12-14T06:23:22;101797.88;;;12.81
64947;BMP280;51469;52.150;4.682;2023-12-14T06:25:48;101807.34;;;13.06
64947;BMP280;51469;52.150;4.682;2023-12-14T06:28:13;101814.41;;;12.81
64947;BMP280;51469;52.150;4.682;2023-12-14T06:30:38;101823.69;;;12.73
64947;BMP280;51469;52.150;4.682;2023-12-14T06:33:04;101827.47;;;13.06
64947;BMP280;51469;52.150;4.682;2023-12-14T06:35:29;101841.22;;;12.84
64947;BMP280;51469;52.150;4.682;2023-12-14T06:37:54;101848.06;;;12.71
64947;BMP280;51469;52.150;4.682;2023-12-14T06:40:20;101845.63;;;12.09
64947;BMP280;51469;52.150;4.682;2023-12-14T06:42:45;101853.25;;;12.15
64947;BMP280;51469;52.150;4.682;2023-12-14T06:45:10;101857.66;;;12.01
64947;BMP280;51469;52.150;4.682;2023-12-14T06:47:36;101855.06;;;12.27
64947;BMP280;51469;52.150;4.682;2023-12-14T06:50:01;101863.72;;;12.67
64947;BMP280;51469;52.150;4.682;2023-12-14T06:52:26;101874.81;;;12.93
64947;BMP280;51469;52.150;4.682;2023-12-14T06:54:52;101865.91;;;12.58
64947;BMP280;51469;52.150;4.682;2023-12-14T06:57:17;101872.69;;;12.83
64947;BMP280;51469;52.150;4.682;2023-12-14T06:59:42;101877.03;;;12.84
64947;BMP280;51469;52.150;4.682;2023-12-14T07:02:08;101876.38;;;13.13
64947;BMP280;51469;52.150;4.682;2023-12-14T07:04:33;101878.59;;;13.04
64947;BMP280;51469;52.150;4.682;2023-12-14T07:06:58;101882.13;;;12.82
64947;BMP280;51469;52.150;4.682;2023-12-14T07:09:24;101891.28;;;13.12
64947;BMP280;51469;52.150;4.682;2023-12-14T07:11:51;101886.81;;;13.23
64947;BMP280;51469;52.150;4.682;2023-12-14T07:14:16;101893.94;;;13.27
64947;BMP280;51469;52.150;4.682;2023-12-14T07:16:42;101889.06;;;13.17
64947;BMP280;51469;52.150;4.682;2023-12-14T07:19:07;101879.66;;;13.22
64947;BMP280;51469;52.150;4.682;2023-12-14T07:21:33;101899.69;;;13.19
64947;BMP280;51469;52.150;4.682;2023-12-14T07:23:58;101894.56;;;13.17
64947;BMP280;51469;52.150;4.682;2023-12-14T07:26:24;101891.72;;;13.14
64947;BMP280;51469;52.150;4.682;2023-12-14T07:28:49;101896.88;;;12.93
64947;BMP280;51469;52.150;4.682;2023-12-14T07:31:15;101906.59;;;12.87
64947;BMP280;51469;52.150;4.682;2023-12-14T07:33:40;101913.69;;;12.88
64947;BMP280;51469;52.150;4.682;2023-12-14T07:36:06;101921.50;;;12.86
64947;BMP280;51469;52.150;4.682;2023-12-14T07:38:32;101926.19;;;12.82
64947;BMP280;51469;52.150;4.682;2023-12-14T07:40:57;101930.81;;;12.78
64947;BMP280;51469;52.150;4.682;2023-12-14T07:43:23;101924.50;;;12.77
64947;BMP280;51469;52.150;4.682;2023-12-14T07:45:48;101924.41;;;12.74
64947;BMP280;51469;52.150;4.682;2023-12-14T07:48:14;101925.16;;;12.71
64947;BMP280;51469;52.150;4.682;2023-12-14T07:50:39;101928.94;;;12.63
64947;BMP280;51469;52.150;4.682;2023-12-14T07:53:05;101924.09;;;12.56
64947;BMP280;51469;52.150;4.682;2023-12-14T07:55:30;101929.50;;;12.53
64947;BMP280;51469;52.150;4.682;2023-12-14T07:57:56;101931.78;;;12.47
64947;BMP280;51469;52.150;4.682;2023-12-14T08:00:21;101935.59;;;12.43
64947;BMP280;51469;52.150;4.682;2023-12-14T08:02:46;101938.22;;;12.36
64947;BMP280;51469;52.150;4.682;2023-12-14T08:05:12;101945.56;;;12.32
64947;BMP280;51469;52.150;4.682;2023-12-14T08:07:37;101943.91;;;12.27
64947;BMP280;51469;52.150;4.682;2023-12-14T08:10:03;101940.63;;;12.22
64947;BMP280;51469;52.150;4.682;2023-12-14T08:12:28;101940.63;;;12.22
64947;BMP280;51469;52.150;4.682;2023-12-14T08:14:54;101943.75;;;12.20
64947;BMP280;51469;52.150;4.682;2023-12-14T08:17:19;101960.72;;;12.22
64947;BMP280;51469;52.150;4.682;2023-12-14T08:19:45;101968.16;;;12.22
64947;BMP280;51469;52.150;4.682;2023-12-14T08:22:11;101971.34;;;12.24
64947;BMP280;51469;52.150;4.682;2023-12-14T08:24:41;101980.09;;;12.29
64947;BMP280;51469;52.150;4.682;2023-12-14T08:27:06;101992.81;;;12.34
64947;BMP280;51469;52.150;4.682;2023-12-14T08:29:32;101993.25;;;12.36
64947;BMP280;51469;52.150;4.682;2023-12-14T08:31:57;101994.91;;;12.40
64947;BMP280;51469;52.150;4.682;2023-12-14T08:34:27;101999.34;;;12.45
64947;BMP280;51469;52.150;4.682;2023-12-14T08:36:53;102005.03;;;12.52
64947;BMP280;51469;52.150;4.682;2023-12-14T08:39:19;102005.19;;;12.59
64947;BMP280;51469;52.150;4.682;2023-12-14T08:41:47;102008.50;;;12.68
64947;BMP280;51469;52.150;4.682;2023-12-14T08:44:14;102013.44;;;12.78
64947;BMP280;51469;52.150;4.682;2023-12-14T08:46:45;102033.31;;;12.87
64947;BMP280;51469;52.150;4.682;2023-12-14T08:49:13;102032.28;;;12.95
64947;BMP280;51469;52.150;4.682;2023-12-14T08:51:39;102035.31;;;13.09
64947;BMP280;51469;52.150;4.682;2023-12-14T08:54:05;102044.03;;;13.11
64947;BMP280;51469;52.150;4.682;2023-12-14T08:56:30;102048.66;;;13.07
64947;BMP280;51469;52.150;4.682;2023-12-14T08:58:56;102052.44;;;13.18
64947;BMP280;51469;52.150;4.682;2023-12-14T09:01:22;102053.00;;;13.27
64947;BMP280;51469;52.150;4.682;2023-12-14T09:03:48;102059.53;;;13.38
64947;BMP280;51469;52.150;4.682;2023-12-14T09:06:15;102062.09;;;13.50
64947;BMP280;51469;52.150;4.682;2023-12-14T09:08:41;102064.28;;;13.82
64947;BMP280;51469;52.150;4.682;2023-12-14T09:11:06;102067.09;;;14.08
64947;BMP280;51469;52.150;4.682;2023-12-14T09:13:32;102068.84;;;14.20
64947;BMP280;51469;52.150;4.682;2023-12-14T09:15:57;102066.81;;;14.43
64947;BMP280;51469;52.150;4.682;2023-12-14T09:18:22;102057.41;;;14.47
64947;BMP280;51469;52.150;4.682;2023-12-14T09:20:49;102059.91;;;14.56
64947;BMP280;51469;52.150;4.682;2023-12-14T09:23:17;102063.00;;;14.51
64947;BMP280;51469;52.150;4.682;2023-12-14T09:25:44;102073.94;;;14.44
64947;BMP280;51469;52.150;4.682;2023-12-14T09:28:10;102060.31;;;14.32
64947;BMP280;51469;52.150;4.682;2023-12-14T09:30:35;102083.09;;;14.22
64947;BMP280;51469;52.150;4.682;2023-12-14T09:33:00;102080.69;;;14.24
64947;BMP280;51469;52.150;4.682;2023-12-14T09:35:26;102087.72;;;14.18
64947;BMP280;51469;52.150;4.682;2023-12-14T09:37:51;102096.31;;;14.13
64947;BMP280;51469;52.150;4.682;2023-12-14T09:40:17;102097.91;;;14.14
64947;BMP280;51469;52.150;4.682;2023-12-14T09:42:44;102096.31;;;14.13
64947;BMP280;51469;52.150;4.682;2023-12-14T09:45:10;102109.66;;;14.11
64947;BMP280;51469;52.150;4.682;2023-12-14T09:47:36;102107.13;;;13.99
64947;BMP280;51469;52.150;4.682;2023-12-14T09:50:02;102125.28;;;14.00
64947;BMP280;51469;52.150;4.682;2023-12-14T09:52:28;102129.97;;;13.99
64947;BMP280;51469;52.150;4.682;2023-12-14T09:54:54;102119.63;;;13.93
64947;BMP280;51469;52.150;4.682;2023-12-14T09:57:20;102121.22;;;13.94
64947;BMP280;51469;52.150;4.682;2023-12-14T09:59:55;102125.22;;;13.96
64947;BMP280;51469;52.150;4.682;2023-12-14T10:02:27;102118.16;;;13.99
64947;BMP280;51469;52.150;4.682;2023-12-14T10:04:53;102118.88;;;13.96
64947;BMP280;51469;52.150;4.682;2023-12-14T10:07:19;102128.34;;;13.95
64947;BMP280;51469;52.150;4.682;2023-12-14T10:09:45;102126.34;;;13.92
64947;BMP280;51469;52.150;4.682;2023-12-14T10:12:10;102132.81;;;14.03
64947;BMP280;51469;52.150;4.682;2023-12-14T10:14:36;102140.28;;;14.02
64947;BMP280;51469;52.150;4.682;2023-12-14T10:17:16;102142.94;;;14.18
64947;BMP280;51469;52.150;4.682;2023-12-14T10:19:43;102144.28;;;14.05
64947;BMP280;51469;52.150;4.682;2023-12-14T10:22:09;102137.53;;;14.25
64947;BMP280;51469;52.150;4.682;2023-12-14T10:24:35;102139.34;;;14.40
64947;BMP280;51469;52.150;4.682;2023-12-14T10:27:05;102145.84;;;14.51
64947;BMP280;51469;52.150;4.682;2023-12-14T10:29:33;102140.41;;;14.58
64947;BMP280;51469;52.150;4.682;2023-12-14T10:32:01;102134.72;;;14.73
64947;BMP280;51469;52.150;4.682;2023-12-14T10:34:27;102142.81;;;14.59
64947;BMP280;51469;52.150;4.682;2023-12-14T10:36:52;102136.69;;;14.21
64947;BMP280;51469;52.150;4.682;2023-12-14T10:39:19;102137.84;;;14.46
64947;BMP280;51469;52.150;4.682;2023-12-14T10:41:46;102138.66;;;14.46
64947;BMP280;51469;52.150;4.682;2023-12-14T10:44:14;102136.47;;;14.59
64947;BMP280;51469;52.150;4.682;2023-12-14T10:46:40;102151.38;;;14.51
64947;BMP280;51469;52.150;4.682;2023-12-14T10:49:07;102149.13;;;14.60
64947;BMP280;51469;52.150;4.682;2023-12-14T10:51:33;102158.25;;;14.64
64947;BMP280;51469;52.150;4.682;2023-12-14T10:54:00;102165.03;;;14.70
64947;BMP280;51469;52.150;4.682;2023-12-14T10:56:25;102162.84;;;14.79
64947;BMP280;51469;52.150;4.682;2023-12-14T10:58:53;102169.63;;;14.85
64947;BMP280;51469;52.150;4.682;2023-12-14T11:01:21;102166.00;;;14.81
64947;BMP280;51469;52.150;4.682;2023-12-14T11:03:47;102176.97;;;14.74
64947;BMP280;51469;52.150;4.682;2023-12-14T11:06:37;102170.19;;;14.68
64947;BMP280;51469;52.150;4.682;2023-12-14T11:09:08;102175.97;;;14.59
64947;BMP280;51469;52.150;4.682;2023-12-14T11:14:23;102177.50;;;14.57
64947;BMP280;51469;52.150;4.682;2023-12-14T11:16:48;102176.41;;;14.65
64947;BMP280;51469;52.150;4.682;2023-12-14T11:22:09;102188.03;;;14.74
64947;BMP280;51469;52.150;4.682;2023-12-14T11:24:35;102189.78;;;14.86
64947;BMP280;51469;52.150;4.682;2023-12-14T11:27:07;102189.78;;;14.86
64947;BMP280;51469;52.150;4.682;2023-12-14T11:29:33;102186.72;;;14.94
64947;BMP280;51469;52.150;4.682;2023-12-14T11:31:58;102190.25;;;14.91
64947;BMP280;51469;52.150;4.682;2023-12-14T11:34:24;102192.91;;;14.84
64947;BMP280;51469;52.150;4.682;2023-12-14T11:36:50;102198.13;;;14.89
64947;BMP280;51469;52.150;4.682;2023-12-14T11:39:15;102195.31;;;14.86
64947;BMP280;51469;52.150;4.682;2023-12-14T11:41:41;102198.16;;;14.93
64947;BMP280;51469;52.150;4.682;2023-12-14T11:44:06;102193.66;;;14.81
64947;BMP280;51469;52.150;4.682;2023-12-14T11:46:32;102192.03;;;14.80
64947;BMP280;51469;52.150;4.682;2023-12-14T11:48:58;102193.06;;;14.95
64947;BMP280;51469;52.150;4.682;2023-12-14T11:51:23;102200.44;;;14.87
64947;BMP280;51469;52.150;4.682;2023-12-14T11:53:51;102199.31;;;14.91
64947;BMP280;51469;52.150;4.682;2023-12-14T11:56:19;102211.16;;;14.92
64947;BMP280;51469;52.150;4.682;2023-12-14T11:58:45;102213.78;;;15.08
64947;BMP280;51469;52.150;4.682;2023-12-14T12:01:18;102224.91;;;15.11
64947;BMP280;51469;52.150;4.682;2023-12-14T12:03:45;102225.72;;;15.15
64947;BMP280;51469;52.150;4.682;2023-12-14T12:06:25;102221.72;;;14.83
64947;BMP280;51469;52.150;4.682;2023-12-14T12:08:53;102224.19;;;14.91
64947;BMP280;51469;52.150;4.682;2023-12-14T12:11:19;102218.28;;;14.93
64947;BMP280;51469;52.150;4.682;2023-12-14T12:13:51;102222.88;;;14.82
64947;BMP280;51469;52.150;4.682;2023-12-14T12:16:17;102217.78;;;14.84
64947;BMP280;51469;52.150;4.682;2023-12-14T12:18:42;102207.13;;;14.86
64947;BMP280;51469;52.150;4.682;2023-12-14T12:21:07;102207.22;;;14.93
64947;BMP280;51469;52.150;4.682;2023-12-14T12:23:34;102218.19;;;14.86
64947;BMP280;51469;52.150;4.682;2023-12-14T12:25:59;102226.59;;;14.67
64947;BMP280;51469;52.150;4.682;2023-12-14T12:28:25;102217.22;;;14.75
64947;BMP280;51469;52.150;4.682;2023-12-14T12:30:50;102214.09;;;14.76
64947;BMP280;51469;52.150;4.682;2023-12-14T12:33:15;102205.34;;;14.71
64947;BMP280;51469;52.150;4.682;2023-12-14T12:35:41;102196.41;;;14.81
64947;BMP280;51469;52.150;4.682;2023-12-14T12:38:06;102200.72;;;14.78
64947;BMP280;51469;52.150;4.682;2023-12-14T12:40:32;102202.69;;;14.78
64947;BMP280;51469;52.150;4.682;2023-12-14T12:42:58;102210.75;;;14.90
64947;BMP280;51469;52.150;4.682;2023-12-14T12:45:24;102222.34;;;14.99
64947;BMP280;51469;52.150;4.682;2023-12-14T12:47:52;102207.00;;;15.05
64947;BMP280;51469;52.150;4.682;2023-12-14T12:50:18;102211.16;;;14.92
64947;BMP280;51469;52.150;4.682;2023-12-14T12:52:43;102211.59;;;14.94
64947;BMP280;51469;52.150;4.682;2023-12-14T12:55:11;102216.69;;;14.92
64947;BMP280;51469;52.150;4.682;2023-12-14T12:57:36;102217.34;;;14.82
64947;BMP280;51469;52.150;4.682;2023-12-14T13:00:02;102216.69;;;14.92
64947;BMP280;51469;52.150;4.682;2023-12-14T13:02:29;102223.47;;;14.98
64947;BMP280;51469;52.150;4.682;2023-12-14T13:04:54;102237.75;;;15.00
64947;BMP280;51469;52.150;4.682;2023-12-14T13:07:20;102232.00;;;14.86
64947;BMP280;51469;52.150;4.682;2023-12-14T13:09:45;102241.88;;;14.87
64947;BMP280;51469;52.150;4.682;2023-12-14T13:12:10;102244.16;;;14.81
64947;BMP280;51469;52.150;4.682;2023-12-14T13:14:36;102231.31;;;14.93
64947;BMP280;51469;52.150;4.682;2023-12-14T13:17:02;102224.47;;;14.83
64947;BMP280;51469;52.150;4.682;2023-12-14T13:19:27;102241.97;;;14.91
64947;BMP280;51469;52.150;4.682;2023-12-14T13:21:54;102237.94;;;14.88
64947;BMP280;51469;52.150;4.682;2023-12-14T13:24:21;102243.47;;;14.88
64947;BMP280;51469;52.150;4.682;2023-12-14T13:26:47;102241.88;;;14.87
64947;BMP280;51469;52.150;4.682;2023-12-14T13:29:12;102240.31;;;14.86
64947;BMP280;51469;52.150;4.682;2023-12-14T13:31:38;102247.53;;;14.94
64947;BMP280;51469;52.150;4.682;2023-12-14T13:34:03;102241.97;;;14.91
64947;BMP280;51469;52.150;4.682;2023-12-14T13:36:29;102243.28;;;15.00
64947;BMP280;51469;52.150;4.682;2023-12-14T13:38:55;102242.13;;;15.01
64947;BMP280;51469;52.150;4.682;2023-12-14T13:41:21;102250.09;;;15.06
64947;BMP280;51469;52.150;4.682;2023-12-14T13:43:46;102253.28;;;15.08
64947;BMP280;51469;52.150;4.682;2023-12-14T13:46:12;102265.59;;;14.88
64947;BMP280;51469;52.150;4.682;2023-12-14T13:48:37;102266.44;;;14.92
64947;BMP280;51469;52.150;4.682;2023-12-14T13:51:02;102271.00;;;14.81
64947;BMP280;51469;52.150;4.682;2023-12-14T13:53:28;102259.22;;;14.84
64947;BMP280;51469;52.150;4.682;2023-12-14T13:55:53;102264.75;;;14.84